Time;durP1;ratioP1;P1;durP2;ratioP2;P2;SDS_P1;SDS_P2;PMS_P1;PMS_P2;Temp;Humidity;BMP_temperature;BMP_pressure;BME280_temperature;BME280_humidity;BME280_pressure;Samples;Min_cycle;Max_cycle;Signal;HPM_P1;HPM_P2
2022/12/02 00:01:34;;;;;;;;;;;5.20;99.90;;;;;;5079707;28;20298;-81
2022/12/02 00:04:01;;;;;;;;;;;5.10;99.90;;;;;;5098016;28;19924;-81
2022/12/02 00:06:29;;;;;;;;;;;5.10;99.90;;;;;;5097778;28;19931;-82
2022/12/02 00:08:59;;;;;;;;;;;5.00;99.90;;;;;;5080421;28;19955;-80
2022/12/02 00:11:27;;;;;;;;;;;5.00;99.90;;;;;;5095311;28;19981;-80
2022/12/02 00:13:57;;;;;;;;;;;5.00;99.90;;;;;;5070482;28;19924;-81
2022/12/02 00:16:25;;;;;;;;;;;5.10;99.90;;;;;;5079445;28;19935;-79
2022/12/02 00:18:53;;;;;;;;;;;5.10;99.90;;;;;;5072676;28;19939;-79
2022/12/02 00:21:21;;;;;;;;;;;5.00;99.90;;;;;;5076535;28;19928;-79
2022/12/02 00:23:48;;;;;;;;;;;5.00;99.90;;;;;;5077179;28;19977;-79
2022/12/02 00:26:15;;;;;;;;;;;5.00;99.90;;;;;;5065911;28;19924;-81
2022/12/02 00:28:42;;;;;;;;;;;5.00;99.90;;;;;;5058406;28;20014;-81
2022/12/02 00:31:09;;;;;;;;;;;5.00;99.90;;;;;;5078146;28;19928;-80
2022/12/02 00:33:36;;;;;;;;;;;4.90;99.90;;;;;;5078859;28;19985;-81
2022/12/02 00:36:04;;;;;;;;;;;4.90;99.90;;;;;;5083120;28;19986;-82
2022/12/02 00:38:31;;;;;;;;;;;5.00;99.90;;;;;;5094980;28;19928;-81
2022/12/02 00:41:00;;;;;;;;;;;4.90;99.90;;;;;;5070543;28;19928;-81
2022/12/02 00:48:56;;;;;;;;;;;4.90;99.90;;;;;;5095753;28;20321;-80
2022/12/02 00:51:24;;;;;;;;;;;4.80;99.90;;;;;;5109929;28;19936;-81
2022/12/02 00:53:53;;;;;;;;;;;4.70;99.90;;;;;;5097276;22;19976;-78
2022/12/02 00:56:20;;;;;;;;;;;4.70;99.90;;;;;;5079155;28;19993;-78
2022/12/02 00:58:47;;;;;;;;;;;4.70;99.90;;;;;;5079904;28;20022;-81
2022/12/02 01:01:14;;;;;;;;;;;4.60;99.90;;;;;;5059687;28;20359;-80
2022/12/02 01:03:41;;;;;;;;;;;4.60;99.90;;;;;;5050840;28;20186;-78
2022/12/02 01:06:08;;;;;;;;;;;4.70;99.90;;;;;;5054233;28;19989;-79
2022/12/02 01:08:36;;;;;;;;;;;4.60;99.90;;;;;;5052130;28;20405;-80
2022/12/02 01:11:08;;;;;;;;;;;4.60;99.90;;;;;;5053422;28;20459;-79
2022/12/02 01:13:35;;;;;;;;;;;4.60;99.90;;;;;;5052217;28;19980;-79
2022/12/02 01:16:02;;;;;;;;;;;4.60;99.90;;;;;;5052661;28;20359;-79
2022/12/02 01:18:29;;;;;;;;;;;4.50;99.90;;;;;;5055510;28;20007;-79
2022/12/02 01:20:56;;;;;;;;;;;4.50;99.90;;;;;;5088030;28;20382;-80
2022/12/02 01:23:23;;;;;;;;;;;4.50;99.90;;;;;;5057267;28;19982;-82
2022/12/02 01:25:51;;;;;;;;;;;4.50;99.90;;;;;;5060991;28;19939;-82
2022/12/02 01:28:18;;;;;;;;;;;4.40;99.90;;;;;;5061165;28;19936;-80
2022/12/02 01:30:46;;;;;;;;;;;4.50;99.90;;;;;;5056350;28;19942;-79
2022/12/02 01:33:13;;;;;;;;;;;4.50;99.90;;;;;;5055274;28;19939;-80
2022/12/02 01:35:40;;;;;;;;;;;4.50;99.90;;;;;;5059807;28;19939;-78
2022/12/02 01:38:07;;;;;;;;;;;4.40;99.90;;;;;;5057316;28;19925;-80
2022/12/02 01:40:34;;;;;;;;;;;4.40;99.90;;;;;;5053150;28;20025;-79
2022/12/02 01:43:03;;;;;;;;;;;4.40;99.90;;;;;;5051672;28;19928;-80
2022/12/02 01:45:30;;;;;;;;;;;4.40;99.90;;;;;;5052100;28;19932;-78
2022/12/02 01:47:59;;;;;;;;;;;4.40;99.90;;;;;;5046702;28;19935;-79
2022/12/02 01:50:25;;;;;;;;;;;4.40;99.90;;;;;;5079221;28;19978;-79
2022/12/02 01:52:52;;;;;;;;;;;4.50;99.90;;;;;;5051308;28;19928;-80
2022/12/02 01:55:21;;;;;;;;;;;4.50;99.90;;;;;;5051989;28;20277;-81
2022/12/02 01:57:48;;;;;;;;;;;4.60;99.90;;;;;;5037901;28;19929;-78
2022/12/02 02:00:18;;;;;;;;;;;4.60;99.90;;;;;;5051879;28;19934;-79
2022/12/02 02:02:46;;;;;;;;;;;4.60;99.90;;;;;;5052096;28;20382;-79
2022/12/02 02:05:15;;;;;;;;;;;4.60;99.90;;;;;;5052017;28;19947;-78
2022/12/02 02:07:44;;;;;;;;;;;4.60;99.90;;;;;;5051566;28;20399;-80
2022/12/02 02:10:11;;;;;;;;;;;4.70;99.90;;;;;;5061249;28;19932;-79
2022/12/02 02:12:38;;;;;;;;;;;4.70;99.90;;;;;;5051968;28;19931;-80
2022/12/02 02:15:10;;;;;;;;;;;4.60;99.90;;;;;;5065909;28;19928;-79
2022/12/02 02:17:42;;;;;;;;;;;4.60;99.90;;;;;;5041202;28;20910;-80
2022/12/02 02:20:10;;;;;;;;;;;4.60;99.90;;;;;;5058489;28;19924;-78
2022/12/02 02:22:39;;;;;;;;;;;4.60;99.90;;;;;;5064530;28;20318;-79
2022/12/02 02:25:11;;;;;;;;;;;4.60;99.90;;;;;;5051215;28;20572;-78
2022/12/02 02:27:38;;;;;;;;;;;4.60;99.90;;;;;;5078185;28;19924;-79
2022/12/02 02:30:06;;;;;;;;;;;4.60;99.90;;;;;;5057563;28;20042;-77
2022/12/02 02:32:32;;;;;;;;;;;4.50;99.90;;;;;;5062232;28;20391;-78
2022/12/02 02:35:06;;;;;;;;;;;4.50;99.90;;;;;;5078864;28;19931;-78
2022/12/02 02:37:33;;;;;;;;;;;4.60;99.90;;;;;;5053126;28;20291;-79
2022/12/02 02:40:00;;;;;;;;;;;4.60;99.90;;;;;;5051361;28;19928;-82
2022/12/02 02:42:30;;;;;;;;;;;4.60;99.90;;;;;;5052875;28;19924;-79
2022/12/02 02:44:57;;;;;;;;;;;4.60;99.90;;;;;;5052199;28;20052;-84
2022/12/02 02:47:24;;;;;;;;;;;4.70;99.90;;;;;;5055149;28;19925;-80
2022/12/02 02:49:52;;;;;;;;;;;4.70;99.90;;;;;;5060765;28;19932;-81
2022/12/02 02:52:19;;;;;;;;;;;4.60;99.90;;;;;;5065866;28;19928;-83
2022/12/02 02:54:47;;;;;;;;;;;4.60;99.90;;;;;;5055689;28;20441;-84
2022/12/02 02:57:14;;;;;;;;;;;4.70;99.90;;;;;;5058975;28;20087;-82
2022/12/02 02:59:43;;;;;;;;;;;4.80;99.90;;;;;;5055778;28;20345;-81
2022/12/02 03:02:12;;;;;;;;;;;4.70;99.90;;;;;;5058183;28;19935;-81
2022/12/02 03:04:40;;;;;;;;;;;4.70;99.90;;;;;;5058977;28;19984;-81
2022/12/02 03:07:07;;;;;;;;;;;4.70;99.90;;;;;;5058172;28;19932;-82
2022/12/02 03:09:34;;;;;;;;;;;4.70;99.90;;;;;;5054821;28;19935;-80
2022/12/02 03:12:02;;;;;;;;;;;4.70;99.90;;;;;;5054245;28;20008;-80
2022/12/02 03:14:29;;;;;;;;;;;4.60;99.90;;;;;;5055667;28;19939;-80
2022/12/02 03:16:59;;;;;;;;;;;4.60;99.90;;;;;;5055553;28;20073;-80
2022/12/02 03:19:26;;;;;;;;;;;4.60;99.90;;;;;;5054134;28;19989;-80
2022/12/02 03:21:53;;;;;;;;;;;4.60;99.90;;;;;;5054904;28;19950;-80
2022/12/02 03:24:20;;;;;;;;;;;4.60;99.90;;;;;;5073802;28;19948;-80
2022/12/02 03:26:47;;;;;;;;;;;6.10;99.90;;;;;;5055874;28;19943;-80
2022/12/02 03:29:14;;;;;;;;;;;4.60;99.90;;;;;;5055914;28;20022;-80
2022/12/02 03:31:41;;;;;;;;;;;4.70;99.90;;;;;;5054242;28;19935;-80
2022/12/02 03:34:10;;;;;;;;;;;4.70;99.90;;;;;;5055979;28;19955;-81
2022/12/02 03:36:38;;;;;;;;;;;4.70;99.90;;;;;;5055837;28;20704;-80
2022/12/02 03:39:05;;;;;;;;;;;4.70;99.90;;;;;;5073593;28;19969;-80
2022/12/02 03:41:32;;;;;;;;;;;4.70;99.90;;;;;;5072919;28;19987;-80
2022/12/02 03:43:59;;;;;;;;;;;4.70;99.90;;;;;;5055629;28;19972;-80
2022/12/02 03:46:27;;;;;;;;;;;4.70;99.90;;;;;;5055233;28;19940;-81
2022/12/02 03:48:55;;;;;;;;;;;4.70;99.90;;;;;;5054782;28;19928;-81
2022/12/02 03:51:23;;;;;;;;;;;4.70;99.90;;;;;;5073058;28;19932;-81
2022/12/02 03:53:50;;;;;;;;;;;4.80;99.90;;;;;;5055113;28;19971;-81
2022/12/02 03:56:17;;;;;;;;;;;4.80;99.90;;;;;;5054889;28;20022;-80
2022/12/02 03:58:46;;;;;;;;;;;4.70;99.90;;;;;;5072714;28;19956;-82
2022/12/02 04:01:13;;;;;;;;;;;4.80;99.90;;;;;;5073462;28;20091;-82
2022/12/02 04:03:40;;;;;;;;;;;4.80;99.90;;;;;;5054747;28;19925;-82
2022/12/02 04:06:06;;;;;;;;;;;4.80;99.90;;;;;;5062294;28;19932;-80
2022/12/02 04:08:35;;;;;;;;;;;4.70;99.90;;;;;;5067722;28;19925;-82
2022/12/02 04:11:02;;;;;;;;;;;4.70;99.90;;;;;;5073294;28;20476;-83
2022/12/02 04:13:29;;;;;;;;;;;4.70;99.90;;;;;;5073913;28;19932;-82
2022/12/02 04:15:56;;;;;;;;;;;4.70;99.90;;;;;;5059445;28;19924;-83
2022/12/02 04:18:23;;;;;;;;;;;4.70;99.90;;;;;;5051871;28;19928;-83
2022/12/02 04:20:49;;;;;;;;;;;4.60;99.90;;;;;;5066757;28;19978;-80
2022/12/02 04:23:16;;;;;;;;;;;4.70;99.90;;;;;;5075468;28;19928;-80
2022/12/02 04:25:45;;;;;;;;;;;4.70;99.90;;;;;;5056681;28;20019;-80
2022/12/02 04:28:12;;;;;;;;;;;4.80;99.90;;;;;;5055602;28;19928;-80
2022/12/02 04:30:38;;;;;;;;;;;4.70;99.90;;;;;;5074339;28;20244;-80
2022/12/02 04:33:05;;;;;;;;;;;4.70;99.90;;;;;;5059413;28;19928;-80
2022/12/02 04:35:33;;;;;;;;;;;4.70;99.90;;;;;;5060193;28;20031;-80
2022/12/02 04:37:59;;;;;;;;;;;4.70;99.90;;;;;;5059727;28;19932;-80
2022/12/02 04:40:26;;;;;;;;;;;4.70;99.90;;;;;;5058165;28;19993;-80
2022/12/02 04:42:55;;;;;;;;;;;4.70;99.90;;;;;;5078513;28;20356;-80
2022/12/02 04:45:22;;;;;;;;;;;4.70;99.90;;;;;;5058868;28;19928;-80
2022/12/02 04:47:49;;;;;;;;;;;4.70;99.90;;;;;;5064571;28;19928;-82
2022/12/02 04:50:16;;;;;;;;;;;4.70;99.90;;;;;;5070302;28;19931;-81
2022/12/02 04:52:43;;;;;;;;;;;4.60;99.90;;;;;;5064455;28;19951;-81
2022/12/02 04:55:10;;;;;;;;;;;4.60;99.90;;;;;;5058036;28;19925;-81
2022/12/02 04:57:37;;;;;;;;;;;4.50;99.90;;;;;;5057749;28;19928;-82
2022/12/02 05:00:06;;;;;;;;;;;4.50;99.90;;;;;;5075948;28;19928;-81
2022/12/02 05:02:33;;;;;;;;;;;4.50;99.90;;;;;;5051084;28;19928;-81
2022/12/02 05:05:00;;;;;;;;;;;4.50;99.90;;;;;;5073856;28;20241;-81
2022/12/02 05:07:27;;;;;;;;;;;4.50;99.90;;;;;;5067795;28;20363;-80
2022/12/02 05:09:54;;;;;;;;;;;4.50;99.90;;;;;;5060112;28;19932;-80
2022/12/02 05:12:23;;;;;;;;;;;4.60;99.90;;;;;;5058127;28;19928;-81
2022/12/02 05:14:50;;;;;;;;;;;4.60;99.90;;;;;;5058155;28;19991;-81
2022/12/02 05:17:18;;;;;;;;;;;4.60;99.90;;;;;;5076263;28;19928;-80
2022/12/02 05:19:45;;;;;;;;;;;4.60;99.90;;;;;;5069657;28;19928;-81
2022/12/02 05:22:12;;;;;;;;;;;4.50;99.90;;;;;;5060233;28;19928;-80
2022/12/02 05:24:40;;;;;;;;;;;4.40;99.90;;;;;;5056480;28;19929;-80
2022/12/02 05:27:07;;;;;;;;;;;4.40;99.90;;;;;;5067164;28;19960;-80
2022/12/02 05:29:34;;;;;;;;;;;4.40;99.90;;;;;;5036570;28;20403;-80
2022/12/02 05:32:01;;;;;;;;;;;4.40;99.90;;;;;;5055361;28;19929;-80
2022/12/02 05:34:29;;;;;;;;;;;4.40;99.90;;;;;;5054344;28;19935;-80
2022/12/02 05:36:56;;;;;;;;;;;4.50;99.90;;;;;;5057061;28;20360;-79
2022/12/02 05:39:23;;;;;;;;;;;4.40;99.90;;;;;;5075228;28;20027;-79
2022/12/02 05:41:50;;;;;;;;;;;4.40;99.90;;;;;;5066722;28;20023;-80
2022/12/02 05:44:21;;;;;;;;;;;4.40;99.90;;;;;;5074315;28;19928;-80
2022/12/02 05:46:48;;;;;;;;;;;4.50;99.90;;;;;;5057119;28;20258;-79
2022/12/02 05:49:17;;;;;;;;;;;4.40;99.90;;;;;;5063056;28;19948;-78
2022/12/02 05:51:48;;;;;;;;;;;4.50;99.90;;;;;;5086828;28;19928;-79
2022/12/02 05:54:19;;;;;;;;;;;4.40;99.90;;;;;;5057211;28;19985;-80
2022/12/02 05:56:47;;;;;;;;;;;4.40;99.90;;;;;;5057806;28;19964;-80
2022/12/02 05:59:16;;;;;;;;;;;4.40;99.90;;;;;;5041796;28;19956;-79
2022/12/02 06:01:43;;;;;;;;;;;4.40;99.90;;;;;;5037789;28;19933;-81
2022/12/02 06:04:13;;;;;;;;;;;4.30;99.90;;;;;;5038190;28;19948;-79
2022/12/02 06:06:40;;;;;;;;;;;4.20;99.90;;;;;;5047072;28;20015;-81
2022/12/02 06:09:13;;;;;;;;;;;4.30;99.90;;;;;;5059339;28;20405;-83
2022/12/02 06:11:40;;;;;;;;;;;4.30;99.90;;;;;;5059034;28;20463;-82
2022/12/02 06:14:10;;;;;;;;;;;4.30;99.90;;;;;;5057995;28;19924;-80
2022/12/02 06:16:37;;;;;;;;;;;4.30;99.90;;;;;;5058743;28;19925;-83
2022/12/02 06:19:09;;;;;;;;;;;4.40;99.90;;;;;;5058537;28;20501;-83
2022/12/02 06:21:35;;;;;;;;;;;4.40;99.90;;;;;;5063901;28;19935;-82
2022/12/02 06:24:09;;;;;;;;;;;4.30;99.90;;;;;;5064030;28;19929;-81
2022/12/02 06:26:37;;;;;;;;;;;4.30;99.90;;;;;;5059947;28;19932;-82
2022/12/02 06:29:05;;;;;;;;;;;4.20;99.90;;;;;;5064050;28;19932;-82
2022/12/02 06:31:34;;;;;;;;;;;4.20;99.90;;;;;;5070086;28;20027;-80
2022/12/02 06:34:10;;;;;;;;;;;4.20;99.90;;;;;;5061366;28;19958;-82
2022/12/02 06:36:37;;;;;;;;;;;4.20;99.90;;;;;;5057352;28;20318;-81
2022/12/02 06:39:14;;;;;;;;;;;4.20;99.90;;;;;;5061531;28;19954;-80
2022/12/02 06:41:49;;;;;;;;;;;4.20;99.90;;;;;;5056245;28;20019;-81
2022/12/02 06:47:23;;;;;;;;;;;4.20;99.90;;;;;;5061477;28;19932;-84
2022/12/02 06:49:50;;;;;;;;;;;4.10;99.90;;;;;;5062071;28;19928;-85
2022/12/02 06:52:21;;;;;;;;;;;4.10;99.90;;;;;;5054472;28;20496;-85
2022/12/02 06:54:51;;;;;;;;;;;4.10;99.90;;;;;;5060202;28;19981;-85
2022/12/02 06:57:20;;;;;;;;;;;4.00;99.90;;;;;;5086374;28;20375;-83
2022/12/02 06:59:48;;;;;;;;;;;4.00;99.90;;;;;;5050060;28;19937;-83
2022/12/02 07:02:21;;;;;;;;;;;4.00;99.90;;;;;;5050517;28;20383;-82
2022/12/02 07:04:49;;;;;;;;;;;4.00;99.90;;;;;;5041548;28;19932;-83
2022/12/02 07:07:18;;;;;;;;;;;4.10;99.90;;;;;;5049224;28;19928;-83
2022/12/02 07:09:47;;;;;;;;;;;4.10;99.90;;;;;;5064173;28;20367;-84
2022/12/02 07:12:16;;;;;;;;;;;4.10;99.90;;;;;;5049031;28;19928;-83
2022/12/02 07:14:46;;;;;;;;;;;4.10;99.90;;;;;;5046345;28;20312;-84
2022/12/02 07:17:16;;;;;;;;;;;4.10;99.90;;;;;;5047554;28;19936;-83
2022/12/02 07:19:45;;;;;;;;;;;4.10;99.90;;;;;;5048139;28;19960;-81
2022/12/02 07:22:16;;;;;;;;;;;4.10;99.90;;;;;;5049764;28;19995;-81
2022/12/02 07:24:45;;;;;;;;;;;4.10;99.90;;;;;;5053212;28;19932;-81
2022/12/02 07:27:20;;;;;;;;;;;4.20;99.90;;;;;;5053039;28;19939;-81
2022/12/02 07:29:49;;;;;;;;;;;4.10;99.90;;;;;;5056892;28;20020;-81
2022/12/02 07:32:17;;;;;;;;;;;4.10;99.90;;;;;;5050439;28;19929;-80
2022/12/02 07:34:44;;;;;;;;;;;4.10;99.90;;;;;;5067185;28;20038;-83
2022/12/02 07:37:11;;;;;;;;;;;4.20;99.90;;;;;;5070143;28;19974;-83
2022/12/02 07:39:39;;;;;;;;;;;4.10;99.90;;;;;;5067695;28;20029;-81
2022/12/02 07:42:06;;;;;;;;;;;4.10;99.90;;;;;;5052498;28;19924;-80
2022/12/02 07:44:33;;;;;;;;;;;4.10;99.90;;;;;;5055721;28;20030;-81
2022/12/02 07:47:03;;;;;;;;;;;4.10;99.90;;;;;;5067656;28;20154;-81
2022/12/02 07:49:30;;;;;;;;;;;4.10;99.90;;;;;;5053703;28;19934;-80
2022/12/02 07:51:58;;;;;;;;;;;4.10;99.90;;;;;;5048492;28;19939;-81
2022/12/02 07:54:25;;;;;;;;;;;4.10;99.90;;;;;;5056176;28;20015;-81
2022/12/02 07:56:53;;;;;;;;;;;4.10;99.90;;;;;;5058658;28;19928;-80
2022/12/02 07:59:20;;;;;;;;;;;4.10;99.90;;;;;;5052664;28;20491;-80
2022/12/02 08:01:47;;;;;;;;;;;4.10;99.90;;;;;;5052832;28;19932;-81
2022/12/02 08:04:17;;;;;;;;;;;4.10;99.90;;;;;;5053154;28;19932;-81
2022/12/02 08:06:44;;;;;;;;;;;4.10;99.90;;;;;;5051890;28;19959;-79
2022/12/02 08:09:11;;;;;;;;;;;4.20;99.90;;;;;;5073828;28;19925;-80
2022/12/02 08:11:38;;;;;;;;;;;4.20;99.90;;;;;;5073571;28;19951;-81
2022/12/02 08:14:05;;;;;;;;;;;4.10;99.90;;;;;;5052004;28;19932;-81
2022/12/02 08:16:33;;;;;;;;;;;4.20;99.90;;;;;;5055480;28;20520;-81
2022/12/02 08:19:00;;;;;;;;;;;4.20;99.90;;;;;;5057088;28;19932;-80
2022/12/02 08:21:29;;;;;;;;;;;4.30;99.90;;;;;;5055996;28;20328;-80
2022/12/02 08:23:56;;;;;;;;;;;4.30;99.90;;;;;;5074382;28;20911;-80
2022/12/02 08:26:23;;;;;;;;;;;4.30;99.90;;;;;;5075936;28;20391;-80
2022/12/02 08:28:51;;;;;;;;;;;4.40;99.90;;;;;;5057385;28;19950;-80
2022/12/02 08:31:18;;;;;;;;;;;4.40;99.90;;;;;;5057204;28;20347;-80
2022/12/02 08:33:45;;;;;;;;;;;4.50;99.90;;;;;;5056902;28;19924;-80
2022/12/02 08:36:12;;;;;;;;;;;4.40;99.90;;;;;;5074970;28;19935;-80
2022/12/02 08:38:41;;;;;;;;;;;4.40;99.90;;;;;;5056630;28;19990;-80
2022/12/02 08:41:08;;;;;;;;;;;4.40;99.90;;;;;;5055969;28;20470;-79
2022/12/02 08:43:35;;;;;;;;;;;4.40;99.90;;;;;;5056999;28;20095;-80
2022/12/02 08:46:03;;;;;;;;;;;4.30;99.90;;;;;;5053311;28;19959;-79
2022/12/02 08:48:31;;;;;;;;;;;4.30;99.90;;;;;;5054748;28;20364;-80
2022/12/02 08:50:58;;;;;;;;;;;4.30;99.90;;;;;;5056042;28;19935;-80
2022/12/02 08:53:25;;;;;;;;;;;4.40;99.90;;;;;;5073248;28;20025;-79
2022/12/02 08:55:54;;;;;;;;;;;4.40;99.90;;;;;;5058045;28;19928;-81
2022/12/02 08:58:23;;;;;;;;;;;4.40;99.90;;;;;;5053461;28;20002;-80
2022/12/02 09:00:50;;;;;;;;;;;4.40;99.90;;;;;;5053677;28;19932;-80
2022/12/02 09:03:17;;;;;;;;;;;4.50;99.90;;;;;;5056319;28;19929;-80
2022/12/02 09:05:44;;;;;;;;;;;4.40;99.90;;;;;;5055670;28;19943;-80
2022/12/02 09:08:11;;;;;;;;;;;4.50;99.90;;;;;;5059804;28;20314;-81
2022/12/02 09:10:38;;;;;;;;;;;4.50;99.90;;;;;;5054818;28;19929;-81
2022/12/02 09:13:06;;;;;;;;;;;4.50;99.90;;;;;;5054904;28;19932;-80
2022/12/02 09:15:33;;;;;;;;;;;4.50;99.90;;;;;;5055209;28;19981;-82
2022/12/02 09:18:00;;;;;;;;;;;4.50;99.90;;;;;;5039590;28;19964;-81
2022/12/02 09:20:28;;;;;;;;;;;4.50;99.90;;;;;;5055411;28;19936;-83
2022/12/02 09:22:56;;;;;;;;;;;4.50;99.90;;;;;;5068053;28;19935;-83
2022/12/02 09:25:23;;;;;;;;;;;4.50;99.90;;;;;;5045107;28;20014;-82
2022/12/02 09:27:50;;;;;;;;;;;4.50;99.90;;;;;;5050368;28;19940;-83
2022/12/02 09:30:19;;;;;;;;;;;4.50;99.90;;;;;;5052482;28;19929;-82
2022/12/02 09:32:47;;;;;;;;;;;4.50;99.90;;;;;;5050881;28;19940;-83
2022/12/02 09:35:14;;;;;;;;;;;4.50;99.90;;;;;;5053864;28;19951;-82
2022/12/02 09:37:41;;;;;;;;;;;4.60;99.90;;;;;;5053492;28;20046;-82
2022/12/02 09:40:09;;;;;;;;;;;4.70;99.90;;;;;;5051110;28;19940;-82
2022/12/02 09:42:36;;;;;;;;;;;4.00;99.90;;;;;;5048525;28;19948;-82
2022/12/02 09:45:03;;;;;;;;;;;4.80;99.90;;;;;;5050915;28;19924;-82
2022/12/02 09:47:33;;;;;;;;;;;4.80;99.90;;;;;;5051025;28;19936;-81
2022/12/02 09:50:01;;;;;;;;;;;4.80;99.90;;;;;;5052976;28;21166;-81
2022/12/02 09:52:29;;;;;;;;;;;4.70;99.90;;;;;;5053366;28;19928;-80
2022/12/02 09:54:57;;;;;;;;;;;4.70;99.90;;;;;;5052914;28;19932;-81
2022/12/02 09:57:26;;;;;;;;;;;4.70;99.90;;;;;;5069520;28;20066;-83
2022/12/02 09:59:53;;;;;;;;;;;4.70;99.90;;;;;;5072072;28;20305;-82
2022/12/02 10:02:24;;;;;;;;;;;4.70;99.90;;;;;;5050100;28;20311;-80
2022/12/02 10:04:54;;;;;;;;;;;4.70;99.90;;;;;;5070592;28;20487;-83
2022/12/02 10:07:21;;;;;;;;;;;4.70;99.90;;;;;;5061233;28;19967;-81
2022/12/02 10:09:52;;;;;;;;;;;4.60;99.90;;;;;;5051926;28;19929;-80
2022/12/02 10:12:18;;;;;;;;;;;4.60;99.90;;;;;;5051492;28;19924;-82
2022/12/02 10:14:48;;;;;;;;;;;4.70;99.90;;;;;;5052701;28;19983;-84
2022/12/02 10:17:16;;;;;;;;;;;4.80;99.90;;;;;;5052699;28;19955;-80
2022/12/02 10:19:45;;;;;;;;;;;4.80;99.90;;;;;;5068557;28;19935;-80
2022/12/02 10:22:16;;;;;;;;;;;4.80;99.90;;;;;;5069482;28;19973;-83
2022/12/02 10:24:44;;;;;;;;;;;4.70;99.90;;;;;;5067353;28;20028;-81
2022/12/02 10:27:23;;;;;;;;;;;4.80;99.90;;;;;;5051699;28;19932;-85
2022/12/02 10:29:52;;;;;;;;;;;4.80;99.90;;;;;;5052147;28;19982;-88
2022/12/02 10:32:21;;;;;;;;;;;4.80;99.90;;;;;;5061655;28;20032;-81
2022/12/02 10:35:01;;;;;;;;;;;4.70;99.90;;;;;;5046976;28;19943;-85
2022/12/02 10:37:36;;;;;;;;;;;4.70;99.90;;;;;;5066024;28;20464;-82
2022/12/02 10:40:08;;;;;;;;;;;4.60;99.90;;;;;;5048121;28;19963;-79
2022/12/02 10:42:35;;;;;;;;;;;4.70;99.90;;;;;;5037069;28;19960;-80
2022/12/02 10:45:15;;;;;;;;;;;4.70;99.90;;;;;;5043620;28;19955;-80
2022/12/02 10:47:43;;;;;;;;;;;4.70;99.90;;;;;;5061101;28;19971;-81
2022/12/02 10:50:15;;;;;;;;;;;4.70;99.90;;;;;;5048326;28;19924;-80
2022/12/02 10:52:46;;;;;;;;;;;4.70;99.90;;;;;;5047498;28;19928;-80
2022/12/02 10:55:16;;;;;;;;;;;4.70;99.90;;;;;;5047990;28;20022;-81
2022/12/02 10:57:45;;;;;;;;;;;4.70;99.90;;;;;;5048036;28;19940;-80
2022/12/02 11:00:14;;;;;;;;;;;4.80;99.90;;;;;;5042109;28;19974;-80
2022/12/02 11:02:45;;;;;;;;;;;4.90;99.90;;;;;;5064922;28;19928;-79
2022/12/02 11:05:14;;;;;;;;;;;4.90;99.90;;;;;;5066717;28;20420;-80
2022/12/02 11:07:41;;;;;;;;;;;4.90;99.90;;;;;;5048314;28;19935;-79
2022/12/02 11:10:18;;;;;;;;;;;4.90;99.90;;;;;;5065892;28;20662;-79
2022/12/02 11:12:59;;;;;;;;;;;4.80;99.90;;;;;;5052468;28;20640;-80
2022/12/02 11:15:37;;;;;;;;;;;4.60;99.90;;;;;;5050434;28;19990;-80
2022/12/02 11:18:06;;;;;;;;;;;4.70;99.90;;;;;;5051310;28;19951;-83
2022/12/02 11:20:38;;;;;;;;;;;4.70;99.90;;;;;;5051705;28;20003;-81
2022/12/02 11:23:07;;;;;;;;;;;;;;;;;;5050474;28;20372;-80
2022/12/02 11:25:52;;;;;;;;;;;4.90;99.90;;;;;;5051409;28;19947;-83
2022/12/02 11:28:38;;;;;;;;;;;5.00;99.90;;;;;;5045929;28;19932;-84
2022/12/02 11:31:22;;;;;;;;;;;4.90;99.90;;;;;;5066631;28;20626;-79
2022/12/02 11:34:05;;;;;;;;;;;4.90;99.90;;;;;;5053372;28;19946;-81
2022/12/02 11:36:34;;;;;;;;;;;5.00;99.90;;;;;;5068649;28;19932;-80
2022/12/02 11:39:03;;;;;;;;;;;5.00;99.90;;;;;;5054129;28;20302;-81
2022/12/02 11:41:52;;;;;;;;;;;5.00;99.90;;;;;;5055613;28;19948;-80
2022/12/02 11:44:25;;;;;;;;;;;5.00;99.90;;;;;;5070471;28;20655;-82
2022/12/02 11:46:56;;;;;;;;;;;5.10;99.90;;;;;;5073460;28;19928;-81
2022/12/02 11:49:41;;;;;;;;;;;5.10;99.90;;;;;;5051589;28;20397;-81
2022/12/02 11:52:19;;;;;;;;;;;5.30;99.90;;;;;;5060993;28;19921;-82
2022/12/02 11:54:48;;;;;;;;;;;5.20;99.90;;;;;;5072926;28;19993;-81
2022/12/02 11:57:21;;;;;;;;;;;5.30;99.90;;;;;;5052061;28;20010;-81
2022/12/02 11:59:52;;;;;;;;;;;5.40;99.90;;;;;;5052113;28;20140;-81
2022/12/02 12:02:20;;;;;;;;;;;5.40;99.90;;;;;;5045298;28;20276;-81
2022/12/02 12:04:58;;;;;;;;;;;5.40;99.90;;;;;;5053095;28;19929;-83
2022/12/02 12:07:40;;;;;;;;;;;5.30;99.90;;;;;;5074230;28;19932;-83
2022/12/02 12:10:07;;;;;;;;;;;5.30;99.90;;;;;;5065330;28;19944;-82
2022/12/02 12:12:34;;;;;;;;;;;5.30;99.90;;;;;;5056636;28;19975;-83
2022/12/02 12:15:03;;;;;;;;;;;5.20;99.90;;;;;;5054765;28;20010;-82
2022/12/02 12:17:43;;;;;;;;;;;5.10;99.90;;;;;;5052117;28;20364;-82
2022/12/02 12:20:29;;;;;;;;;;;5.00;99.90;;;;;;5048235;28;20913;-82
2022/12/02 12:23:13;;;;;;;;;;;5.00;99.90;;;;;;5069042;28;19987;-82
2022/12/02 12:25:43;;;;;;;;;;;5.00;99.90;;;;;;5046617;28;19935;-82
2022/12/02 12:28:22;;;;;;;;;;;5.20;99.90;;;;;;5065420;28;19943;-82
2022/12/02 12:30:50;;;;;;;;;;;5.10;99.90;;;;;;5048626;28;19932;-82
2022/12/02 12:33:17;;;;;;;;;;;5.10;99.90;;;;;;5051426;28;20391;-82
2022/12/02 12:35:44;;;;;;;;;;;5.10;99.90;;;;;;5056149;28;19936;-82
2022/12/02 12:38:12;;;;;;;;;;;5.00;99.90;;;;;;5048798;28;19932;-82
2022/12/02 12:40:39;;;;;;;;;;;5.30;99.90;;;;;;5068837;28;19946;-82
2022/12/02 12:43:06;;;;;;;;;;;5.00;99.90;;;;;;5049484;28;20586;-82
2022/12/02 12:45:33;;;;;;;;;;;4.90;99.90;;;;;;5039277;28;20391;-81
2022/12/02 12:48:01;;;;;;;;;;;4.90;99.90;;;;;;5067627;28;20033;-82
2022/12/02 12:50:28;;;;;;;;;;;4.90;99.90;;;;;;5048466;28;20485;-82
2022/12/02 12:52:55;;;;;;;;;;;6.50;99.90;;;;;;5054465;28;20363;-82
2022/12/02 12:55:22;;;;;;;;;;;5.00;99.90;;;;;;5077063;28;20384;-81
2022/12/02 12:57:49;;;;;;;;;;;5.00;99.90;;;;;;5057419;28;20437;-84
2022/12/02 13:00:16;;;;;;;;;;;5.00;99.90;;;;;;5073268;28;20545;-81
2022/12/02 13:02:44;;;;;;;;;;;5.00;99.90;;;;;;5053490;28;19986;-84
2022/12/02 13:05:12;;;;;;;;;;;5.00;99.90;;;;;;5053860;28;19932;-83
2022/12/02 13:07:40;;;;;;;;;;;5.00;99.90;;;;;;5053892;28;19960;-82
2022/12/02 13:10:07;;;;;;;;;;;5.00;99.90;;;;;;5055581;28;19932;-83
2022/12/02 13:12:34;;;;;;;;;;;5.10;99.90;;;;;;5062002;28;19959;-82
2022/12/02 13:15:01;;;;;;;;;;;5.10;99.90;;;;;;5054904;28;19932;-82
2022/12/02 13:17:28;;;;;;;;;;;5.00;99.90;;;;;;5073855;28;19924;-83
2022/12/02 13:19:55;;;;;;;;;;;5.00;99.90;;;;;;5053417;28;19932;-81
2022/12/02 13:22:24;;;;;;;;;;;4.90;99.90;;;;;;5043039;28;20003;-81
2022/12/02 13:24:51;;;;;;;;;;;4.90;99.90;;;;;;5051638;28;20698;-83
2022/12/02 13:27:17;;;;;;;;;;;4.90;99.90;;;;;;5054527;28;19929;-82
2022/12/02 13:29:44;;;;;;;;;;;4.90;99.90;;;;;;5068247;28;19932;-83
2022/12/02 13:32:11;;;;;;;;;;;4.80;99.90;;;;;;5050984;28;20675;-83
2022/12/02 13:34:38;;;;;;;;;;;4.70;99.90;;;;;;5057015;28;19928;-82
2022/12/02 13:37:05;;;;;;;;;;;4.70;99.90;;;;;;5072836;28;19929;-83
2022/12/02 13:39:33;;;;;;;;;;;4.60;99.90;;;;;;5052752;28;19978;-82
2022/12/02 13:42:00;;;;;;;;;;;4.60;99.90;;;;;;5053842;28;20581;-81
2022/12/02 13:44:28;;;;;;;;;;;4.60;99.90;;;;;;5053174;28;19933;-83
2022/12/02 13:46:55;;;;;;;;;;;4.60;99.90;;;;;;5056376;28;19936;-82
2022/12/02 13:49:21;;;;;;;;;;;4.60;99.90;;;;;;5071893;28;20363;-81
2022/12/02 13:51:48;;;;;;;;;;;4.60;99.90;;;;;;5052560;28;19925;-81
2022/12/02 13:54:15;;;;;;;;;;;4.60;99.90;;;;;;5054356;28;19939;-82
2022/12/02 13:56:43;;;;;;;;;;;4.50;99.90;;;;;;5074637;28;19928;-82
2022/12/02 13:59:10;;;;;;;;;;;4.50;99.90;;;;;;5051847;28;19967;-82
2022/12/02 14:01:37;;;;;;;;;;;4.50;99.90;;;;;;5071446;28;19932;-83
2022/12/02 14:04:04;;;;;;;;;;;4.40;99.90;;;;;;5071178;28;19936;-81
2022/12/02 14:06:31;;;;;;;;;;;4.40;99.90;;;;;;5055197;28;20004;-81
2022/12/02 14:08:58;;;;;;;;;;;4.40;99.90;;;;;;5049652;28;19959;-82
2022/12/02 14:11:26;;;;;;;;;;;4.40;99.90;;;;;;5075314;28;19995;-83
2022/12/02 14:13:54;;;;;;;;;;;4.40;99.90;;;;;;5053727;28;19924;-82
2022/12/02 14:16:21;;;;;;;;;;;4.40;99.90;;;;;;5054469;28;19929;-82
2022/12/02 14:18:48;;;;;;;;;;;4.40;99.90;;;;;;5071463;28;20301;-83
2022/12/02 14:21:15;;;;;;;;;;;4.40;99.90;;;;;;5071822;28;19929;-84
2022/12/02 14:23:42;;;;;;;;;;;4.40;99.90;;;;;;5054665;28;20000;-83
2022/12/02 14:26:09;;;;;;;;;;;4.40;99.90;;;;;;5052459;28;19925;-82
2022/12/02 14:28:36;;;;;;;;;;;4.30;99.90;;;;;;5053028;28;20018;-82
2022/12/02 14:31:04;;;;;;;;;;;4.30;99.90;;;;;;5071864;28;19948;-81
2022/12/02 14:33:31;;;;;;;;;;;4.30;99.90;;;;;;5051589;28;19928;-82
2022/12/02 14:35:57;;;;;;;;;;;4.30;99.90;;;;;;5051311;28;19970;-83
2022/12/02 14:38:25;;;;;;;;;;;4.30;99.90;;;;;;5065474;28;19929;-81
2022/12/02 14:40:52;;;;;;;;;;;4.30;99.90;;;;;;5048145;28;19936;-82
2022/12/02 14:43:19;;;;;;;;;;;4.20;99.90;;;;;;5066267;28;19931;-81
2022/12/02 14:45:46;;;;;;;;;;;4.20;99.90;;;;;;5052611;28;19939;-83
2022/12/02 14:48:14;;;;;;;;;;;4.20;99.90;;;;;;5069946;28;19932;-83